createdAt,value
2019-03-25T00:00:13.683Z,85.98
2019-03-25T00:01:13.676Z,86.40
2019-03-25T00:02:13.693Z,86.60
2019-03-25T00:03:13.670Z,86.60
2019-03-25T00:04:13.648Z,86.50
2019-03-25T00:05:13.634Z,86.57
2019-03-25T00:06:13.623Z,86.57
2019-03-25T00:07:13.616Z,86.67
2019-03-25T00:08:13.636Z,86.57
2019-03-25T00:09:13.607Z,86.67
2019-03-25T00:10:13.595Z,86.77
2019-03-25T00:11:13.572Z,86.60
2019-03-25T00:12:13.558Z,86.46
2019-03-25T00:13:13.559Z,86.25
2019-03-25T00:14:13.819Z,86.57
2019-03-25T00:15:13.526Z,86.52
2019-03-25T00:16:13.531Z,86.11
2019-03-25T00:17:13.507Z,85.80
2019-03-25T00:18:13.495Z,85.69
2019-03-25T00:19:13.494Z,85.69
2019-03-25T00:20:13.513Z,85.80
2019-03-25T00:21:13.469Z,85.49
2019-03-25T00:22:13.469Z,85.49
2019-03-25T00:23:13.469Z,85.49
2019-03-25T00:24:13.424Z,85.44
2019-03-25T00:25:13.411Z,85.55
2019-03-25T00:26:13.465Z,85.24
2019-03-25T00:27:13.392Z,85.61
2019-03-25T00:28:13.868Z,85.24
2019-03-25T00:29:13.384Z,85.24
2019-03-25T00:30:13.365Z,85.24
2019-03-25T00:31:13.354Z,84.61
2019-03-25T00:32:13.390Z,84.61
2019-03-25T00:33:13.332Z,84.16
2019-03-25T00:34:13.324Z,84.16
2019-03-25T00:35:13.308Z,84.05
2019-03-25T00:36:13.301Z,84.41
2019-03-25T00:37:13.316Z,83.84
2019-03-25T00:38:13.321Z,83.99
2019-03-25T00:39:13.290Z,84.09
2019-03-25T00:40:13.277Z,83.78
2019-03-25T00:41:13.272Z,83.95
2019-03-25T00:42:13.244Z,83.64
2019-03-25T00:43:13.229Z,83.84
2019-03-25T00:44:13.926Z,83.95
2019-03-25T00:45:13.195Z,83.01
2019-03-25T00:46:13.205Z,83.74
2019-03-25T00:47:13.175Z,82.91
2019-03-25T00:48:13.163Z,83.64
2019-03-25T00:49:13.169Z,83.74
2019-03-25T00:50:13.182Z,83.12
2019-03-25T00:51:13.132Z,83.33
2019-03-25T00:52:13.120Z,83.64
2019-03-25T00:53:13.112Z,83.22
2019-03-25T00:54:13.113Z,83.01
2019-03-25T00:55:13.088Z,83.12
2019-03-25T00:56:13.122Z,83.64
2019-03-25T00:57:13.071Z,84.05
2019-03-25T00:58:13.070Z,83.53
2019-03-25T00:59:13.049Z,83.16
2019-03-25T01:00:13.049Z,83.01
2019-03-25T01:01:13.034Z,82.81
2019-03-25T01:02:13.045Z,82.60
2019-03-25T01:03:13.006Z,82.50
2019-03-25T01:04:12.993Z,82.08
2019-03-25T01:05:12.979Z,82.18
2019-03-25T01:06:12.982Z,82.18
2019-03-25T01:07:12.972Z,82.25
2019-03-25T01:08:12.984Z,82.25
2019-03-25T01:09:12.942Z,82.18
2019-03-25T01:10:12.924Z,82.18
2019-03-25T01:11:12.915Z,82.39
2019-03-25T01:12:12.910Z,82.50
2019-03-25T01:13:12.902Z,82.70
2019-03-25T01:14:12.938Z,83.43
2019-03-25T01:15:12.897Z,83.68
2019-03-25T01:16:12.865Z,84.20
2019-03-25T01:17:12.865Z,84.20
2019-03-25T01:18:17.078Z,84.20
2019-03-25T01:19:12.836Z,84.44
2019-03-25T01:20:12.903Z,84.41
2019-03-25T01:21:12.814Z,84.20
2019-03-25T01:22:12.801Z,83.99
2019-03-25T01:23:12.815Z,84.09
2019-03-25T01:24:12.793Z,84.20
2019-03-25T01:25:12.767Z,84.44
2019-03-25T01:26:12.796Z,83.72
2019-03-25T01:27:12.810Z,84.30
2019-03-25T01:28:12.749Z,83.61
2019-03-25T01:29:12.727Z,83.68
2019-03-25T01:30:12.720Z,83.82
2019-03-25T01:31:12.695Z,83.92
2019-03-25T01:32:12.730Z,83.72
2019-03-25T01:33:12.680Z,83.61
2019-03-25T01:34:12.685Z,84.03
2019-03-25T01:35:12.689Z,83.40
2019-03-25T01:36:12.715Z,84.55
2019-03-25T01:37:12.635Z,83.72
2019-03-25T01:38:12.660Z,83.72
2019-03-25T01:39:12.613Z,84.55
2019-03-25T01:40:12.613Z,84.13
2019-03-25T01:41:12.606Z,83.61
2019-03-25T01:42:12.577Z,84.23
2019-03-25T01:43:12.571Z,84.03
2019-03-25T01:44:12.614Z,84.17
2019-03-25T01:45:12.544Z,84.23
2019-03-25T01:46:12.536Z,84.17
2019-03-25T01:47:12.537Z,84.23
2019-03-25T01:48:12.525Z,84.23
2019-03-25T01:49:12.508Z,84.03
2019-03-25T01:50:12.527Z,84.17
2019-03-25T01:51:12.481Z,84.27
2019-03-25T01:52:12.473Z,84.75
2019-03-25T01:53:12.460Z,84.13
2019-03-25T01:54:12.464Z,84.23
2019-03-25T01:55:13.668Z,84.13
2019-03-25T01:56:12.467Z,84.86
2019-03-25T01:57:12.414Z,84.20
2019-03-25T01:58:12.407Z,84.41
2019-03-25T01:59:12.392Z,84.41
2019-03-25T02:00:12.398Z,84.41
2019-03-25T02:01:12.375Z,84.41
2019-03-25T02:02:12.406Z,84.09
2019-03-25T02:03:12.350Z,84.09
2019-03-25T02:04:12.343Z,83.84
2019-03-25T02:05:12.328Z,84.05
2019-03-25T02:06:12.326Z,84.12
2019-03-25T02:07:12.336Z,84.01
2019-03-25T02:08:12.336Z,83.60
2019-03-25T02:09:12.290Z,83.70
2019-03-25T02:10:12.279Z,83.70
2019-03-25T02:11:12.266Z,84.08
2019-03-25T02:12:12.258Z,83.67
2019-03-25T02:13:12.258Z,83.29
2019-03-25T02:14:12.298Z,82.63
2019-03-25T02:15:12.229Z,82.42
2019-03-25T02:16:12.210Z,82.11
2019-03-25T02:17:12.209Z,82.07
2019-03-25T02:18:12.188Z,81.97
2019-03-25T02:19:12.203Z,82.53
2019-03-25T02:20:12.202Z,82.21
2019-03-25T02:21:12.171Z,82.07
2019-03-25T02:22:12.145Z,82.11
2019-03-25T02:23:12.229Z,82.80
2019-03-25T02:24:12.325Z,82.39
2019-03-25T02:25:12.111Z,81.56
2019-03-25T02:26:12.144Z,80.93
2019-03-25T02:27:12.104Z,80.83
2019-03-25T02:28:12.090Z,80.41
2019-03-25T02:29:12.077Z,81.04
2019-03-25T02:30:12.057Z,80.93
2019-03-25T02:31:12.053Z,81.24
2019-03-25T02:32:12.071Z,81.07
2019-03-25T02:33:12.036Z,81.18
2019-03-25T02:34:12.035Z,81.35
2019-03-25T02:35:12.000Z,81.14
2019-03-25T02:36:11.994Z,81.04
2019-03-25T02:37:11.985Z,80.62
2019-03-25T02:38:12.018Z,80.52
2019-03-25T02:39:11.958Z,79.96
2019-03-25T02:40:11.951Z,80.73
2019-03-25T02:41:11.987Z,80.73
2019-03-25T02:42:11.942Z,80.89
2019-03-25T02:43:11.916Z,80.27
2019-03-25T02:44:11.953Z,80.27
2019-03-25T02:45:11.889Z,80.06
2019-03-25T02:46:11.890Z,80.68
2019-03-25T02:47:11.909Z,80.33
2019-03-25T02:48:11.862Z,80.13
2019-03-25T02:49:11.847Z,79.82
2019-03-25T02:50:11.877Z,79.51
2019-03-25T02:51:11.830Z,79.16
2019-03-25T02:52:11.822Z,78.54
2019-03-25T02:53:11.817Z,78.96
2019-03-25T02:54:11.837Z,77.88
2019-03-25T02:55:11.796Z,77.47
2019-03-25T02:56:11.836Z,77.05
2019-03-25T02:57:11.805Z,76.71
2019-03-25T02:58:11.760Z,76.09
2019-03-25T02:59:11.757Z,75.67
2019-03-25T03:00:11.732Z,75.78
2019-03-25T03:01:11.745Z,75.22
2019-03-25T03:02:11.761Z,75.32
2019-03-25T03:03:11.698Z,75.02
2019-03-25T03:04:11.701Z,74.60
2019-03-25T03:05:11.667Z,75.02
2019-03-25T03:06:11.658Z,75.12
2019-03-25T03:07:11.669Z,75.02
2019-03-25T03:08:11.714Z,75.09
2019-03-25T03:09:11.626Z,74.91
2019-03-25T03:10:11.618Z,74.46
2019-03-25T03:11:11.609Z,74.05
2019-03-25T03:12:11.604Z,74.88
2019-03-25T03:13:11.586Z,74.67
2019-03-25T03:14:15.092Z,74.57
2019-03-25T03:15:11.579Z,74.57
2019-03-25T03:16:11.548Z,74.33
2019-03-25T03:17:11.542Z,74.22
2019-03-25T03:18:11.531Z,74.74
2019-03-25T03:19:11.547Z,74.57
2019-03-25T03:20:11.780Z,73.71
2019-03-25T03:21:11.494Z,73.81
2019-03-25T03:22:11.485Z,73.08
2019-03-25T03:23:11.471Z,74.02
2019-03-25T03:24:11.461Z,74.12
2019-03-25T03:25:11.464Z,74.63
2019-03-25T03:26:11.479Z,73.81
2019-03-25T03:27:11.425Z,73.50
2019-03-25T03:28:11.419Z,74.02
2019-03-25T03:29:11.407Z,74.02
2019-03-25T03:30:11.431Z,74.84
2019-03-25T03:31:11.390Z,74.43
2019-03-25T03:32:11.423Z,74.12
2019-03-25T03:33:11.360Z,74.53
2019-03-25T03:34:11.348Z,74.33
2019-03-25T03:35:11.336Z,74.74
2019-03-25T03:36:11.326Z,75.12
2019-03-25T03:37:11.330Z,74.91
2019-03-25T03:38:11.372Z,75.26
2019-03-25T03:39:11.303Z,75.32
2019-03-25T03:40:11.282Z,74.81
2019-03-25T03:41:11.273Z,75.53
2019-03-25T03:42:11.264Z,75.53
2019-03-25T03:43:11.244Z,75.63
2019-03-25T03:44:11.309Z,75.84
2019-03-25T03:45:11.230Z,75.63
2019-03-25T03:46:11.212Z,75.84
2019-03-25T03:47:11.210Z,75.53
2019-03-25T03:48:11.193Z,75.22
2019-03-25T03:49:11.227Z,75.39
2019-03-25T03:50:13.899Z,75.91
2019-03-25T03:51:11.175Z,75.70
2019-03-25T03:52:11.150Z,75.60
2019-03-25T03:53:11.244Z,75.91
2019-03-25T03:54:11.130Z,75.81
2019-03-25T03:55:11.119Z,75.60
2019-03-25T03:56:13.642Z,75.67
2019-03-25T03:57:11.110Z,75.81
2019-03-25T03:58:11.093Z,75.81
2019-03-25T03:59:11.183Z,75.81
2019-03-25T04:00:11.079Z,76.01
2019-03-25T04:01:11.048Z,75.77
2019-03-25T04:02:11.078Z,76.01
2019-03-25T04:03:11.062Z,76.08
2019-03-25T04:04:11.035Z,76.22
2019-03-25T04:05:11.005Z,76.53
2019-03-25T04:06:10.993Z,77.15
2019-03-25T04:07:10.993Z,76.39
2019-03-25T04:08:11.027Z,77.46
2019-03-25T04:09:10.961Z,77.56
2019-03-25T04:10:10.950Z,76.84
2019-03-25T04:11:10.938Z,77.77
2019-03-25T04:12:10.931Z,77.15
2019-03-25T04:13:10.921Z,77.04
2019-03-25T04:14:10.956Z,77.36
2019-03-25T04:15:10.891Z,77.56
2019-03-25T04:16:10.885Z,78.28
2019-03-25T04:17:10.878Z,78.28
2019-03-25T04:18:10.871Z,77.67
2019-03-25T04:19:10.849Z,77.87
2019-03-25T04:20:10.889Z,78.18
2019-03-25T04:21:10.835Z,77.87
2019-03-25T04:22:10.819Z,78.28
2019-03-25T04:23:10.807Z,78.25
2019-03-25T04:24:10.806Z,78.28
2019-03-25T04:25:10.801Z,78.18
2019-03-25T04:26:10.855Z,78.97
2019-03-25T04:27:10.768Z,78.14
2019-03-25T04:28:10.750Z,78.70
2019-03-25T04:29:10.743Z,79.01
2019-03-25T04:30:10.731Z,79.32
2019-03-25T04:31:10.724Z,78.70
2019-03-25T04:32:10.767Z,78.80
2019-03-25T04:33:10.695Z,79.01
2019-03-25T04:34:10.699Z,79.28
2019-03-25T04:35:10.675Z,79.83
2019-03-25T04:36:10.698Z,80.00
2019-03-25T04:37:10.664Z,80.04
2019-03-25T04:38:10.673Z,80.04
2019-03-25T04:39:10.645Z,79.32
2019-03-25T04:40:10.616Z,79.49
2019-03-25T04:41:10.602Z,78.91
2019-03-25T04:42:10.626Z,79.28
2019-03-25T04:43:10.599Z,79.94
2019-03-25T04:44:10.627Z,79.83
2019-03-25T04:45:10.572Z,79.32
2019-03-25T04:46:10.562Z,79.90
2019-03-25T04:47:10.564Z,79.94
2019-03-25T04:48:10.538Z,79.73
2019-03-25T04:49:10.529Z,80.46
2019-03-25T04:50:10.804Z,80.46
2019-03-25T04:51:10.500Z,80.35
2019-03-25T04:52:10.491Z,80.25
2019-03-25T04:53:10.472Z,80.25
2019-03-25T04:54:10.479Z,80.56
2019-03-25T04:55:10.481Z,79.42
2019-03-25T04:56:10.491Z,79.63
2019-03-25T04:57:10.434Z,79.52
2019-03-25T04:58:10.419Z,80.25
2019-03-25T04:59:10.409Z,80.35
2019-03-25T05:00:10.404Z,80.87
2019-03-25T05:01:10.394Z,80.76
2019-03-25T05:02:10.432Z,81.07
2019-03-25T05:03:10.370Z,81.28
2019-03-25T05:04:10.361Z,80.97
2019-03-25T05:05:10.350Z,80.97
2019-03-25T05:06:10.367Z,80.66
2019-03-25T05:07:10.324Z,81.07
2019-03-25T05:08:10.360Z,80.56
2019-03-25T05:09:10.302Z,80.66
2019-03-25T05:10:10.299Z,81.28
2019-03-25T05:11:10.315Z,80.66
2019-03-25T05:12:10.266Z,80.66
2019-03-25T05:13:10.251Z,80.56
2019-03-25T05:14:10.271Z,80.66
2019-03-25T05:15:10.236Z,81.07
2019-03-25T05:16:10.224Z,81.28
2019-03-25T05:17:10.213Z,81.28
2019-03-25T05:18:10.300Z,81.28
2019-03-25T05:19:10.325Z,81.96
2019-03-25T05:20:10.358Z,81.14
2019-03-25T05:21:10.167Z,81.70
2019-03-25T05:22:11.183Z,81.35
2019-03-25T05:23:10.141Z,81.18
2019-03-25T05:24:10.135Z,81.14
2019-03-25T05:25:10.134Z,82.17
2019-03-25T05:26:10.176Z,82.00
2019-03-25T05:27:10.188Z,82.10
2019-03-25T05:28:10.090Z,81.80
2019-03-25T05:29:10.087Z,81.56
2019-03-25T05:30:10.076Z,81.80
2019-03-25T05:31:10.053Z,81.90
2019-03-25T05:32:10.112Z,81.86
2019-03-25T05:33:10.033Z,82.00
2019-03-25T05:34:10.069Z,82.00
2019-03-25T05:35:10.050Z,81.56
2019-03-25T05:36:10.014Z,81.66
2019-03-25T05:37:09.999Z,81.70
2019-03-25T05:38:10.034Z,81.59
2019-03-25T05:39:09.981Z,81.45
2019-03-25T05:40:09.963Z,81.59
2019-03-25T05:41:09.950Z,81.76
2019-03-25T05:42:09.951Z,81.28
2019-03-25T05:43:09.958Z,81.76
2019-03-25T05:44:09.966Z,81.07
2019-03-25T05:45:09.910Z,81.80
2019-03-25T05:46:09.938Z,81.59
2019-03-25T05:47:09.879Z,81.49
2019-03-25T05:48:09.873Z,80.93
2019-03-25T05:49:09.855Z,80.73
2019-03-25T05:50:09.877Z,80.32
2019-03-25T05:51:09.847Z,79.63
2019-03-25T05:52:09.828Z,80.56
2019-03-25T05:53:09.845Z,79.94
2019-03-25T05:54:09.899Z,79.83
2019-03-25T05:55:09.795Z,80.42
2019-03-25T05:56:09.896Z,79.83
2019-03-25T05:57:09.799Z,80.56
2019-03-25T05:58:09.779Z,80.35
2019-03-25T05:59:09.759Z,80.66
2019-03-25T06:00:09.745Z,80.25
2019-03-25T06:01:09.728Z,80.76
2019-03-25T06:02:09.814Z,81.07
2019-03-25T06:03:09.717Z,81.80
2019-03-25T06:04:09.708Z,81.21
2019-03-25T06:05:09.677Z,81.70
2019-03-25T06:06:09.678Z,81.73
2019-03-25T06:07:09.660Z,81.84
2019-03-25T06:08:09.674Z,81.59
2019-03-25T06:09:09.633Z,81.94
2019-03-25T06:10:09.625Z,82.56
2019-03-25T06:11:09.618Z,82.10
2019-03-25T06:12:09.609Z,81.63
2019-03-25T06:13:09.624Z,81.63
2019-03-25T06:14:09.636Z,82.42
2019-03-25T06:15:09.594Z,82.31
2019-03-25T06:16:09.567Z,81.63
2019-03-25T06:17:09.562Z,82.15
2019-03-25T06:18:09.584Z,81.84
2019-03-25T06:19:09.525Z,82.04
2019-03-25T06:20:09.567Z,82.66
2019-03-25T06:21:09.505Z,83.39
2019-03-25T06:22:09.492Z,84.00
2019-03-25T06:23:09.501Z,84.66
2019-03-25T06:24:09.480Z,84.87
2019-03-25T06:25:09.477Z,85.11
2019-03-25T06:26:09.481Z,85.99
2019-03-25T06:27:14.172Z,86.46
2019-03-25T06:28:10.434Z,86.50
2019-03-25T06:29:09.440Z,87.23
2019-03-25T06:30:09.418Z,86.81
2019-03-25T06:31:09.415Z,86.91
2019-03-25T06:32:09.436Z,86.60
2019-03-25T06:33:12.697Z,86.25
2019-03-25T06:34:09.360Z,85.94
2019-03-25T06:35:09.383Z,86.01
2019-03-25T06:36:09.339Z,85.70
2019-03-25T06:37:09.328Z,85.60
2019-03-25T06:38:09.551Z,85.91
2019-03-25T06:39:09.313Z,85.28
2019-03-25T06:40:09.296Z,84.97
2019-03-25T06:41:09.314Z,84.56
2019-03-25T06:42:09.277Z,84.52
2019-03-25T06:43:09.267Z,84.15
2019-03-25T06:44:09.299Z,84.00
2019-03-25T06:45:09.271Z,83.59
2019-03-25T06:46:09.230Z,82.66
2019-03-25T06:47:09.225Z,82.76
2019-03-25T06:48:09.214Z,82.87
2019-03-25T06:49:09.197Z,82.66
2019-03-25T06:50:09.245Z,81.90
2019-03-25T06:51:09.177Z,81.70
2019-03-25T06:52:09.170Z,81.18
2019-03-25T06:53:09.154Z,81.80
2019-03-25T06:54:09.144Z,81.80
2019-03-25T06:55:09.142Z,82.04
2019-03-25T06:56:09.198Z,82.00
2019-03-25T06:57:09.116Z,80.66
2019-03-25T06:58:09.123Z,81.07
2019-03-25T06:59:09.086Z,81.28
2019-03-25T07:00:09.078Z,80.56
2019-03-25T07:01:09.070Z,81.28
2019-03-25T07:02:09.097Z,80.66
2019-03-25T07:03:09.062Z,80.66
2019-03-25T07:04:09.040Z,81.28
2019-03-25T07:05:09.020Z,80.97
2019-03-25T07:06:09.011Z,80.46
2019-03-25T07:07:09.009Z,80.46
2019-03-25T07:08:09.033Z,80.32
2019-03-25T07:09:09.008Z,81.18
2019-03-25T07:10:08.967Z,82.00
2019-03-25T07:11:08.958Z,82.00
2019-03-25T07:12:08.943Z,81.59
2019-03-25T07:13:08.945Z,81.70
2019-03-25T07:14:08.983Z,81.90
2019-03-25T07:15:08.911Z,82.10
2019-03-25T07:16:08.931Z,81.66
2019-03-25T07:17:08.891Z,81.66
2019-03-25T07:18:08.881Z,81.76
2019-03-25T07:19:08.870Z,81.24
2019-03-25T07:20:08.898Z,82.07
2019-03-25T07:21:08.847Z,81.35
2019-03-25T07:22:08.890Z,82.17
2019-03-25T07:23:08.829Z,81.86
2019-03-25T07:24:08.813Z,81.14
2019-03-25T07:25:08.810Z,81.00
2019-03-25T07:26:08.836Z,80.90
2019-03-25T07:27:08.779Z,80.69
2019-03-25T07:28:08.800Z,81.00
2019-03-25T07:29:08.755Z,79.97
2019-03-25T07:30:11.292Z,79.86
2019-03-25T07:31:08.742Z,78.94
2019-03-25T07:32:09.135Z,79.76
2019-03-25T07:33:08.715Z,78.73
2019-03-25T07:34:08.711Z,78.59
2019-03-25T07:35:08.688Z,78.73
2019-03-25T07:36:08.680Z,79.97
2019-03-25T07:37:08.669Z,80.00
2019-03-25T07:38:08.731Z,79.38
2019-03-25T07:39:08.650Z,79.69
2019-03-25T07:40:08.640Z,80.32
2019-03-25T07:41:08.644Z,79.35
2019-03-25T07:42:08.638Z,79.25
2019-03-25T07:43:08.599Z,79.55
2019-03-25T07:44:08.834Z,79.31
2019-03-25T07:45:08.592Z,79.04
2019-03-25T07:46:08.570Z,78.90
2019-03-25T07:47:08.567Z,78.21
2019-03-25T07:48:08.563Z,78.52
2019-03-25T07:49:08.535Z,78.49
2019-03-25T07:50:08.579Z,78.55
2019-03-25T07:51:08.518Z,78.04
2019-03-25T07:52:08.500Z,76.46
2019-03-25T07:53:08.524Z,76.87
2019-03-25T07:54:08.512Z,77.08
2019-03-25T07:55:08.535Z,76.11
2019-03-25T07:56:08.581Z,77.08
2019-03-25T07:57:08.490Z,76.87
2019-03-25T07:58:08.467Z,76.49
2019-03-25T07:59:08.448Z,75.36
2019-03-25T08:00:13.491Z,75.77
2019-03-25T08:01:09.499Z,75.98
2019-03-25T08:02:08.411Z,76.46
2019-03-25T08:03:08.384Z,73.81
2019-03-25T08:04:08.380Z,74.80
2019-03-25T08:05:08.370Z,74.40
2019-03-25T08:06:08.344Z,73.98
2019-03-25T08:07:08.412Z,73.26
2019-03-25T08:08:08.343Z,72.23
2019-03-25T08:09:08.313Z,72.64
2019-03-25T08:10:08.315Z,71.61
2019-03-25T08:11:08.292Z,71.00
2019-03-25T08:12:08.290Z,70.45
2019-03-25T08:13:08.346Z,71.37
2019-03-25T08:14:08.307Z,70.55
2019-03-25T08:15:08.255Z,70.96
2019-03-25T08:16:08.270Z,71.27
2019-03-25T08:17:08.227Z,70.58
2019-03-25T08:18:08.234Z,71.51
2019-03-25T08:19:08.245Z,71.30
2019-03-25T08:20:08.192Z,72.23
2019-03-25T08:21:08.182Z,71.23
2019-03-25T08:22:08.182Z,71.55
2019-03-25T08:23:08.154Z,71.92
2019-03-25T08:24:08.146Z,71.95
2019-03-25T08:25:08.159Z,72.44
2019-03-25T08:26:08.127Z,71.41
2019-03-25T08:27:08.120Z,71.44
2019-03-25T08:28:08.119Z,71.44
2019-03-25T08:29:08.089Z,71.41
2019-03-25T08:30:08.078Z,71.41
2019-03-25T08:31:08.107Z,71.03
2019-03-25T08:32:08.058Z,71.64
2019-03-25T08:33:08.055Z,72.40
2019-03-25T08:34:08.062Z,71.34
2019-03-25T08:35:08.023Z,72.78
2019-03-25T08:36:08.029Z,74.33
2019-03-25T08:37:08.047Z,73.64
2019-03-25T08:38:07.989Z,74.71
2019-03-25T08:39:07.990Z,75.95
2019-03-25T08:40:07.980Z,75.12
2019-03-25T08:41:07.957Z,75.36
2019-03-25T08:42:07.970Z,75.32
2019-03-25T08:43:07.965Z,75.87
2019-03-25T08:44:07.920Z,75.95
2019-03-25T08:45:07.909Z,76.50
2019-03-25T08:46:07.901Z,76.70
2019-03-25T08:47:07.890Z,75.95
2019-03-25T08:48:07.876Z,76.25
2019-03-25T08:49:07.915Z,76.77
2019-03-25T08:50:07.860Z,76.53
2019-03-25T08:51:07.848Z,75.18
2019-03-25T08:52:07.843Z,74.43
2019-03-25T08:53:07.824Z,73.91
2019-03-25T08:54:07.812Z,74.12
2019-03-25T08:55:07.850Z,74.22
2019-03-25T08:56:07.789Z,74.43
2019-03-25T08:57:07.781Z,74.08
2019-03-25T08:58:12.220Z,73.16
2019-03-25T08:59:07.758Z,74.71
2019-03-25T09:00:07.748Z,74.29
2019-03-25T09:01:07.782Z,72.96
2019-03-25T09:02:07.722Z,73.57
2019-03-25T09:03:07.711Z,74.05
2019-03-25T09:04:07.715Z,71.34
2019-03-25T09:05:07.696Z,71.86
2019-03-25T09:06:07.676Z,71.44
2019-03-25T09:07:07.722Z,71.75
2019-03-25T09:08:07.654Z,70.48
2019-03-25T09:09:07.650Z,69.46
2019-03-25T09:10:07.662Z,70.48
2019-03-25T09:11:07.622Z,70.45
2019-03-25T09:12:07.633Z,68.16
2019-03-25T09:13:07.641Z,67.23
2019-03-25T09:14:07.587Z,68.74
2019-03-25T09:15:07.581Z,66.89
2019-03-25T09:16:07.589Z,65.86
2019-03-25T09:17:07.555Z,65.01
2019-03-25T09:18:07.544Z,62.85
2019-03-25T09:19:07.588Z,62.16
2019-03-25T09:20:07.534Z,63.53
2019-03-25T09:21:07.514Z,65.05
2019-03-25T09:22:07.509Z,64.56
2019-03-25T09:23:07.564Z,65.66
2019-03-25T09:24:07.480Z,61.68
2019-03-25T09:25:07.766Z,64.25
2019-03-25T09:26:07.457Z,64.46
2019-03-25T09:27:07.444Z,64.15
2019-03-25T09:28:07.434Z,65.00
2019-03-25T09:29:07.434Z,65.62
2019-03-25T09:30:07.416Z,65.00
2019-03-25T09:31:07.454Z,66.24
2019-03-25T09:32:07.387Z,65.03
2019-03-25T09:33:07.376Z,65.75
2019-03-25T09:34:07.366Z,66.54
2019-03-25T09:35:07.394Z,66.16
2019-03-25T09:36:07.343Z,66.16
2019-03-25T09:37:07.388Z,67.19
2019-03-25T09:38:07.319Z,67.57
2019-03-25T09:39:07.315Z,66.24
2019-03-25T09:40:07.302Z,66.44
2019-03-25T09:41:07.309Z,67.57
2019-03-25T09:42:07.279Z,66.34
2019-03-25T09:43:07.319Z,66.24
2019-03-25T09:44:07.261Z,67.57
2019-03-25T09:45:07.248Z,68.08
2019-03-25T09:46:07.231Z,67.47
2019-03-25T09:47:07.238Z,68.08
2019-03-25T09:48:07.215Z,66.44
2019-03-25T09:49:07.250Z,66.67
2019-03-25T09:50:07.187Z,67.50
2019-03-25T09:51:07.176Z,68.60
2019-03-25T09:52:07.163Z,68.70
2019-03-25T09:53:07.168Z,67.95
2019-03-25T09:54:07.149Z,67.38
2019-03-25T09:55:07.191Z,64.94
2019-03-25T09:56:07.122Z,65.73
2019-03-25T09:57:07.116Z,67.48
2019-03-25T09:58:07.105Z,65.80
2019-03-25T09:59:07.106Z,66.11
2019-03-25T10:00:07.095Z,67.03
2019-03-25T10:01:07.112Z,65.80
2019-03-25T10:02:07.064Z,66.63
2019-03-25T10:03:07.056Z,66.73
2019-03-25T10:04:07.065Z,65.91
2019-03-25T10:05:07.038Z,66.25
2019-03-25T10:06:07.033Z,65.77
2019-03-25T10:07:07.053Z,66.61
2019-03-25T10:08:06.991Z,69.18
2019-03-25T10:09:06.980Z,71.28
2019-03-25T10:10:06.966Z,75.87
2019-03-25T10:11:06.976Z,78.69
2019-03-25T10:12:06.948Z,83.13
2019-03-25T10:13:06.982Z,84.69
2019-03-25T10:14:06.923Z,87.10
2019-03-25T10:15:06.932Z,87.76
2019-03-25T10:16:06.916Z,89.46
2019-03-25T10:17:06.900Z,90.19
2019-03-25T10:18:06.880Z,90.25
2019-03-25T10:19:06.940Z,90.41
2019-03-25T10:20:06.880Z,90.58
2019-03-25T10:21:06.858Z,90.64
2019-03-25T10:22:06.889Z,88.64
2019-03-25T10:23:06.830Z,86.94
2019-03-25T10:24:06.854Z,86.18
2019-03-25T10:25:06.926Z,83.98
2019-03-25T10:26:06.793Z,83.84
2019-03-25T10:27:06.807Z,80.95
2019-03-25T10:28:06.798Z,80.40
2019-03-25T10:29:06.806Z,80.09
2019-03-25T10:30:06.750Z,80.67
2019-03-25T10:31:06.862Z,81.49
2019-03-25T10:32:06.725Z,80.22
2019-03-25T10:33:06.717Z,76.11
2019-03-25T10:34:06.709Z,76.35
2019-03-25T10:35:06.701Z,75.93
2019-03-25T10:36:06.688Z,74.26
2019-03-25T10:37:07.072Z,73.74
2019-03-25T10:38:06.662Z,72.38
2019-03-25T10:39:06.665Z,71.69
2019-03-25T10:40:06.634Z,72.51
2019-03-25T10:41:06.624Z,70.70
2019-03-25T10:42:06.615Z,71.11
2019-03-25T10:43:06.722Z,72.17
2019-03-25T10:44:06.624Z,72.44
2019-03-25T10:45:06.584Z,73.78
2019-03-25T10:46:06.584Z,72.44
2019-03-25T10:47:06.558Z,73.36
2019-03-25T10:48:06.552Z,72.65
2019-03-25T10:49:06.726Z,72.03
2019-03-25T10:50:06.526Z,71.51
2019-03-25T10:51:06.511Z,70.15
2019-03-25T10:52:06.526Z,70.32
2019-03-25T10:53:06.512Z,69.19
2019-03-25T10:54:06.486Z,69.26
2019-03-25T10:55:07.829Z,70.50
2019-03-25T10:56:06.462Z,70.80
2019-03-25T10:57:06.444Z,70.15
2019-03-25T10:58:06.444Z,68.82
2019-03-25T10:59:06.423Z,67.90
2019-03-25T11:00:06.420Z,66.25
2019-03-25T11:01:06.441Z,68.62
2019-03-25T11:02:06.395Z,67.41
2019-03-25T11:03:06.388Z,67.24
2019-03-25T11:04:06.380Z,66.38
2019-03-25T11:05:06.362Z,69.15
2019-03-25T11:06:06.351Z,70.42
2019-03-25T11:07:06.420Z,71.51
2019-03-25T11:08:06.325Z,75.60
2019-03-25T11:09:06.328Z,79.86
2019-03-25T11:10:06.338Z,83.40
2019-03-25T11:11:06.486Z,82.55
2019-03-25T11:12:06.333Z,84.86
2019-03-25T11:13:06.350Z,85.52
2019-03-25T11:14:06.266Z,85.18
2019-03-25T11:15:06.257Z,85.84
2019-03-25T11:16:06.238Z,87.78
2019-03-25T11:17:06.227Z,89.42
2019-03-25T11:18:06.276Z,88.69
2019-03-25T11:19:06.309Z,90.50
2019-03-25T11:20:06.201Z,87.35
2019-03-25T11:21:06.211Z,85.50
2019-03-25T11:22:06.186Z,84.27
2019-03-25T11:23:06.163Z,83.40
2019-03-25T11:24:06.193Z,81.39
2019-03-25T11:25:06.174Z,82.22
2019-03-25T11:26:06.135Z,82.45
2019-03-25T11:27:06.117Z,83.51
2019-03-25T11:28:06.107Z,81.96
2019-03-25T11:29:08.647Z,83.17
2019-03-25T11:30:06.139Z,82.40
2019-03-25T11:31:06.142Z,82.23
2019-03-25T11:32:06.069Z,83.47
2019-03-25T11:33:06.065Z,80.37
2019-03-25T11:34:06.070Z,79.34
2019-03-25T11:35:06.064Z,81.57
2019-03-25T11:36:06.017Z,81.63
2019-03-25T11:37:06.055Z,80.61
2019-03-25T11:38:06.006Z,82.42
2019-03-25T11:39:05.995Z,80.88
2019-03-25T11:40:05.998Z,80.47
2019-03-25T11:41:05.973Z,81.76
2019-03-25T11:42:05.953Z,81.67
2019-03-25T11:43:05.977Z,79.40
2019-03-25T11:44:05.930Z,80.43
2019-03-25T11:45:05.921Z,81.56
2019-03-25T11:46:05.910Z,81.73
2019-03-25T11:47:05.898Z,79.63
2019-03-25T11:48:05.887Z,80.52
2019-03-25T11:49:05.900Z,79.91
2019-03-25T11:50:05.867Z,78.12
2019-03-25T11:51:05.860Z,77.61
2019-03-25T11:52:05.858Z,77.51
2019-03-25T11:53:05.830Z,77.37
2019-03-25T11:54:05.824Z,77.74
2019-03-25T11:55:05.843Z,77.03
2019-03-25T11:56:05.796Z,76.17
2019-03-25T11:57:05.785Z,77.47
2019-03-25T11:58:05.785Z,76.34
2019-03-25T11:59:05.788Z,75.15
2019-03-25T12:00:05.752Z,76.14
2019-03-25T12:01:05.769Z,74.94
2019-03-25T12:02:05.738Z,76.42
2019-03-25T12:03:05.721Z,78.09
2019-03-25T12:04:05.709Z,76.97
2019-03-25T12:05:05.709Z,77.92
2019-03-25T12:06:05.698Z,79.88
2019-03-25T12:07:05.748Z,79.91
2019-03-25T12:08:05.661Z,80.39
2019-03-25T12:09:05.670Z,79.58
2019-03-25T12:10:05.645Z,81.05
2019-03-25T12:11:05.628Z,83.36
2019-03-25T12:12:05.642Z,83.59
2019-03-25T12:13:05.667Z,82.42
2019-03-25T12:14:05.593Z,80.53
2019-03-25T12:15:05.603Z,79.98
2019-03-25T12:16:05.582Z,78.30
2019-03-25T12:17:05.566Z,78.94
2019-03-25T12:18:05.634Z,75.66
2019-03-25T12:19:05.585Z,74.43
2019-03-25T12:20:05.527Z,75.21
2019-03-25T12:21:05.521Z,75.24
2019-03-25T12:22:05.518Z,70.70
2019-03-25T12:23:05.495Z,72.69
2019-03-25T12:24:05.510Z,71.22
2019-03-25T12:25:05.498Z,70.98
2019-03-25T12:26:05.459Z,71.49
2019-03-25T12:27:05.448Z,69.47
2019-03-25T12:28:05.437Z,69.40
2019-03-25T12:29:05.427Z,71.08
2019-03-25T12:30:05.419Z,69.88
2019-03-25T12:31:05.453Z,70.42
2019-03-25T12:32:05.390Z,71.66
2019-03-25T12:33:05.380Z,72.31
2019-03-25T12:34:05.409Z,73.02
2019-03-25T12:35:05.357Z,71.59
2019-03-25T12:36:05.348Z,70.79
2019-03-25T12:37:05.384Z,71.83
2019-03-25T12:38:05.324Z,71.86
2019-03-25T12:39:05.314Z,73.02
2019-03-25T12:40:07.740Z,74.15
2019-03-25T12:41:05.291Z,77.80
2019-03-25T12:42:05.284Z,81.85
2019-03-25T12:43:05.314Z,84.61
2019-03-25T12:44:05.258Z,85.47
2019-03-25T12:45:05.250Z,86.86
2019-03-25T12:46:05.236Z,86.86
2019-03-25T12:47:05.232Z,87.02
2019-03-25T12:48:05.219Z,82.67
2019-03-25T12:49:05.283Z,81.21
2019-03-25T12:50:05.195Z,77.13
2019-03-25T12:51:05.180Z,75.11
2019-03-25T12:52:05.174Z,75.56